Time;durP1;ratioP1;P1;durP2;ratioP2;P2;SDS_P1;SDS_P2;PMS_P1;PMS_P2;Temp;Humidity;BMP_temperature;BMP_pressure;BME280_temperature;BME280_humidity;BME280_pressure;Samples;Min_cycle;Max_cycle;Signal;HPM_P1;HPM_P2
2023/12/07 00:00:35;;;;;;;7.10;5.40;;;;;;;;;;5066556;28;42274;-69
2023/12/07 00:03:06;;;;;;;7.30;4.97;;;;;;;;;;5057121;28;41195;-71
2023/12/07 00:05:34;;;;;;;8.85;4.85;;;;;;;;;;5062132;28;42939;-71
2023/12/07 00:08:03;;;;;;;4.80;4.13;;;;;;;;;;5066983;28;40450;-71
2023/12/07 00:10:32;;;;;;;6.55;4.32;;;;;;;;;;5066311;28;42732;-71
2023/12/07 00:13:00;;;;;;;7.50;4.63;;;;;;;;;;5065856;28;40262;-71
2023/12/07 00:15:28;;;;;;;5.72;4.57;;;;;;;;;;5067106;28;42609;-71
2023/12/07 00:17:56;;;;;;;7.55;4.95;;;;;;;;;;5058163;28;42139;-71
2023/12/07 00:20:24;;;;;;;6.32;4.78;;;;;;;;;;5056442;28;40213;-71
2023/12/07 00:22:52;;;;;;;5.35;4.65;;;;;;;;;;5064405;28;41150;-71
2023/12/07 00:25:20;;;;;;;6.10;4.45;;;;;;;;;;5059776;28;42701;-71
2023/12/07 00:27:49;;;;;;;6.63;5.43;;;;;;;;;;5061171;28;41160;-71
2023/12/07 00:30:17;;;;;;;6.05;4.70;;;;;;;;;;5057408;28;41038;-71
2023/12/07 00:32:46;;;;;;;8.65;6.05;;;;;;;;;;5064091;28;40845;-71
2023/12/07 00:35:14;;;;;;;8.85;5.93;;;;;;;;;;5064854;28;41305;-71
2023/12/07 00:37:42;;;;;;;6.32;5.15;;;;;;;;;;5068040;28;43115;-71
2023/12/07 00:40:10;;;;;;;4.80;4.22;;;;;;;;;;5044106;28;38547;-71
2023/12/07 00:42:38;;;;;;;7.20;4.72;;;;;;;;;;5059213;28;42685;-71
2023/12/07 00:45:08;;;;;;;5.18;4.25;;;;;;;;;;5065934;28;41992;-71
2023/12/07 00:47:36;;;;;;;6.65;4.82;;;;;;;;;;5065885;28;40074;-71
2023/12/07 00:50:05;;;;;;;6.45;5.07;;;;;;;;;;5064834;28;41154;-71
2023/12/07 00:52:33;;;;;;;5.60;4.97;;;;;;;;;;5070368;28;41704;-71
2023/12/07 00:55:01;;;;;;;5.03;3.88;;;;;;;;;;5069560;28;40863;-71
2023/12/07 00:57:39;;;;;;;7.65;5.00;;;;;;;;;;5058524;28;41724;-71
2023/12/07 01:00:10;;;;;;;5.50;5.00;;;;;;;;;;5059717;28;40376;-71
2023/12/07 01:02:38;;;;;;;6.25;4.50;;;;;;;;;;5067093;28;41616;-71
2023/12/07 01:05:06;;;;;;;5.88;4.75;;;;;;;;;;5068721;28;41745;-71
2023/12/07 01:07:34;;;;;;;6.28;4.63;;;;;;;;;;5070549;28;39756;-71
2023/12/07 01:10:03;;;;;;;7.13;4.85;;;;;;;;;;5054669;28;41663;-71
2023/12/07 01:12:31;;;;;;;6.03;4.63;;;;;;;;;;5068522;28;41795;-71
2023/12/07 01:14:59;;;;;;;5.88;4.50;;;;;;;;;;5064666;28;42362;-71
2023/12/07 01:17:28;;;;;;;5.78;4.65;;;;;;;;;;5055336;28;42642;-71
2023/12/07 01:19:56;;;;;;;5.80;4.65;;;;;;;;;;5070206;28;40270;-71
2023/12/07 01:22:24;;;;;;;5.18;4.57;;;;;;;;;;5055678;28;40095;-71
2023/12/07 01:24:52;;;;;;;5.15;4.28;;;;;;;;;;5069056;28;42060;-70
2023/12/07 01:27:20;;;;;;;6.63;5.20;;;;;;;;;;5062077;28;41014;-71
2023/12/07 01:29:48;;;;;;;5.20;4.25;;;;;;;;;;5069410;28;40933;-71
2023/12/07 01:32:18;;;;;;;5.55;4.68;;;;;;;;;;5068750;28;42021;-71
2023/12/07 01:34:47;;;;;;;6.60;4.85;;;;;;;;;;5065147;28;40979;-71
2023/12/07 01:37:16;;;;;;;6.18;4.90;;;;;;;;;;5060826;28;42353;-71
2023/12/07 01:39:44;;;;;;;5.90;4.22;;;;;;;;;;5068317;28;40097;-71
2023/12/07 01:42:12;;;;;;;5.70;4.88;;;;;;;;;;5051315;28;41151;-70
2023/12/07 01:44:40;;;;;;;6.10;5.07;;;;;;;;;;5068498;28;41645;-71
2023/12/07 01:47:10;;;;;;;5.70;4.53;;;;;;;;;;5069773;28;40009;-71
2023/12/07 01:49:38;;;;;;;5.40;4.38;;;;;;;;;;5061346;28;41887;-70
2023/12/07 01:52:07;;;;;;;5.13;4.43;;;;;;;;;;5059624;28;42528;-70
2023/12/07 01:54:35;;;;;;;5.72;4.40;;;;;;;;;;5065364;28;40080;-71
2023/12/07 01:57:03;;;;;;;5.10;4.38;;;;;;;;;;5069172;28;42578;-70
2023/12/07 01:59:31;;;;;;;5.95;4.53;;;;;;;;;;5069655;28;43057;-71
2023/12/07 02:01:59;;;;;;;4.43;4.03;;;;;;;;;;5069138;28;42578;-70
2023/12/07 02:04:27;;;;;;;5.88;4.78;;;;;;;;;;5066465;28;41778;-71
2023/12/07 02:06:56;;;;;;;4.88;4.15;;;;;;;;;;5038909;28;40154;-71
2023/12/07 02:09:25;;;;;;;5.57;4.47;;;;;;;;;;5049893;28;40250;-71
2023/12/07 02:11:53;;;;;;;5.70;4.55;;;;;;;;;;5069057;28;41853;-71
2023/12/07 02:14:21;;;;;;;4.82;4.32;;;;;;;;;;5050199;28;38826;-71
2023/12/07 02:16:50;;;;;;;5.28;4.45;;;;;;;;;;5069291;28;41705;-71
2023/12/07 02:19:25;;;;;;;5.68;4.20;;;;;;;;;;5067866;28;41990;-71
2023/12/07 02:21:53;;;;;;;5.60;4.32;;;;;;;;;;5066992;28;40256;-72
2023/12/07 02:24:22;;;;;;;5.60;4.43;;;;;;;;;;5069111;28;42093;-71
2023/12/07 02:26:51;;;;;;;6.10;5.50;;;;;;;;;;5067403;28;40307;-71
2023/12/07 02:29:19;;;;;;;5.70;4.60;;;;;;;;;;5069143;28;40902;-71
2023/12/07 02:31:47;;;;;;;5.93;5.32;;;;;;;;;;5063583;28;42160;-71
2023/12/07 02:34:15;;;;;;;5.63;4.40;;;;;;;;;;5058882;28;40119;-70
2023/12/07 02:36:43;;;;;;;4.03;3.60;;;;;;;;;;5068580;28;41928;-70
2023/12/07 02:39:12;;;;;;;5.20;4.70;;;;;;;;;;5047067;28;40432;-70
2023/12/07 02:41:40;;;;;;;6.10;4.60;;;;;;;;;;5057280;28;41407;-71
2023/12/07 02:44:10;;;;;;;6.68;4.90;;;;;;;;;;5068517;28;41348;-71
2023/12/07 02:46:38;;;;;;;6.25;4.82;;;;;;;;;;5068784;28;40164;-70
2023/12/07 02:49:06;;;;;;;4.30;3.90;;;;;;;;;;5066814;28;41247;-71
2023/12/07 02:51:34;;;;;;;6.20;4.95;;;;;;;;;;5045456;28;40956;-71
2023/12/07 02:54:02;;;;;;;5.22;4.15;;;;;;;;;;5059356;28;41756;-70
2023/12/07 02:56:30;;;;;;;5.40;4.78;;;;;;;;;;5049832;28;40004;-71
2023/12/07 02:58:58;;;;;;;5.18;4.40;;;;;;;;;;5065312;28;42162;-71
2023/12/07 03:01:27;;;;;;;6.80;4.68;;;;;;;;;;5057269;28;40418;-70
2023/12/07 03:03:55;;;;;;;4.40;3.60;;;;;;;;;;5053474;28;41609;-71
2023/12/07 03:06:23;;;;;;;4.68;4.28;;;;;;;;;;5068522;28;42081;-70
2023/12/07 03:08:51;;;;;;;4.45;3.72;;;;;;;;;;5067704;28;42132;-70
2023/12/07 03:11:19;;;;;;;6.07;4.18;;;;;;;;;;5050098;28;42176;-71
2023/12/07 03:13:47;;;;;;;4.97;4.47;;;;;;;;;;5061282;28;41392;-71
2023/12/07 03:16:15;;;;;;;6.03;5.05;;;;;;;;;;5066543;28;41695;-70
2023/12/07 03:18:44;;;;;;;6.30;4.25;;;;;;;;;;5068110;28;42775;-70
2023/12/07 03:21:12;;;;;;;6.22;4.68;;;;;;;;;;5064621;28;40214;-72
2023/12/07 03:23:40;;;;;;;6.28;5.07;;;;;;;;;;5056155;28;42639;-71
2023/12/07 03:26:08;;;;;;;6.57;5.45;;;;;;;;;;5047724;28;41708;-71
2023/12/07 03:28:37;;;;;;;5.22;4.32;;;;;;;;;;5058754;28;42091;-71
2023/12/07 03:31:05;;;;;;;4.78;4.13;;;;;;;;;;5036279;28;40529;-71
2023/12/07 03:33:33;;;;;;;5.75;4.25;;;;;;;;;;5062059;28;40438;-70
2023/12/07 03:36:03;;;;;;;6.63;5.20;;;;;;;;;;5034412;28;40060;-71
2023/12/07 03:38:31;;;;;;;5.15;4.20;;;;;;;;;;5067410;28;42057;-71
2023/12/07 03:40:59;;;;;;;5.20;4.53;;;;;;;;;;5052924;28;40336;-71
2023/12/07 03:43:27;;;;;;;5.53;4.30;;;;;;;;;;5066859;28;42271;-71
2023/12/07 03:45:55;;;;;;;4.90;4.05;;;;;;;;;;5052396;28;41552;-71
2023/12/07 03:48:23;;;;;;;5.03;4.13;;;;;;;;;;5076930;28;39871;-71
2023/12/07 03:50:51;;;;;;;6.45;5.05;;;;;;;;;;5066396;28;41860;-71
2023/12/07 03:53:20;;;;;;;5.80;4.90;;;;;;;;;;5042344;28;39096;-70
2023/12/07 03:55:48;;;;;;;5.38;4.68;;;;;;;;;;5047914;28;41621;-70
2023/12/07 03:58:16;;;;;;;6.05;3.80;;;;;;;;;;5066595;28;42706;-71
2023/12/07 04:00:44;;;;;;;4.97;4.28;;;;;;;;;;5067007;28;39916;-71
2023/12/07 04:03:13;;;;;;;4.85;4.30;;;;;;;;;;5067179;28;41563;-71
2023/12/07 04:05:41;;;;;;;5.30;4.45;;;;;;;;;;5065929;28;41984;-71
2023/12/07 04:08:09;;;;;;;5.97;4.47;;;;;;;;;;5067379;28;41056;-70
2023/12/07 04:10:38;;;;;;;4.82;4.32;;;;;;;;;;5067567;28;41671;-71
2023/12/07 04:13:06;;;;;;;5.25;4.60;;;;;;;;;;5068818;28;42790;-71
2023/12/07 04:15:34;;;;;;;5.35;3.50;;;;;;;;;;5071119;28;42533;-71
2023/12/07 04:18:02;;;;;;;4.35;3.95;;;;;;;;;;5070711;28;42584;-70
2023/12/07 04:20:30;;;;;;;4.90;4.22;;;;;;;;;;5069979;28;39752;-71
2023/12/07 04:22:58;;;;;;;5.20;4.15;;;;;;;;;;5070695;28;41224;-71
2023/12/07 04:25:26;;;;;;;3.97;3.45;;;;;;;;;;5070192;28;42785;-71
2023/12/07 04:27:56;;;;;;;4.20;3.63;;;;;;;;;;5065502;28;41933;-72
2023/12/07 04:30:24;;;;;;;4.72;3.90;;;;;;;;;;5060353;28;41444;-71
2023/12/07 04:32:52;;;;;;;4.22;3.83;;;;;;;;;;5069427;28;41932;-71
2023/12/07 04:35:20;;;;;;;4.30;3.60;;;;;;;;;;5070751;28;40918;-71
2023/12/07 04:37:48;;;;;;;3.97;3.58;;;;;;;;;;5069588;28;42755;-71
2023/12/07 04:40:16;;;;;;;3.92;3.35;;;;;;;;;;5069511;28;40910;-72
2023/12/07 04:42:44;;;;;;;4.30;3.53;;;;;;;;;;5070034;28;42136;-70
2023/12/07 04:45:13;;;;;;;5.35;4.07;;;;;;;;;;5070172;28;42140;-70
2023/12/07 04:47:42;;;;;;;5.70;3.92;;;;;;;;;;5068725;28;40037;-70
2023/12/07 04:50:10;;;;;;;4.88;3.85;;;;;;;;;;5070193;28;42173;-70
2023/12/07 04:52:38;;;;;;;3.85;3.35;;;;;;;;;;5063003;28;43132;-70
2023/12/07 04:55:07;;;;;;;4.50;3.97;;;;;;;;;;5069901;28;41235;-71
2023/12/07 04:57:35;;;;;;;3.92;3.53;;;;;;;;;;5070625;28;41939;-70
2023/12/07 05:00:05;;;;;;;5.10;4.20;;;;;;;;;;5069498;28;41936;-70
2023/12/07 05:02:35;;;;;;;4.70;4.20;;;;;;;;;;5055047;28;41162;-70
2023/12/07 05:05:03;;;;;;;4.88;3.90;;;;;;;;;;5069522;28;41880;-70
2023/12/07 05:07:31;;;;;;;4.60;4.18;;;;;;;;;;5070008;28;39984;-70
2023/12/07 05:09:59;;;;;;;4.57;3.80;;;;;;;;;;5069398;28;42081;-70
2023/12/07 05:12:27;;;;;;;3.83;3.35;;;;;;;;;;5069587;28;42818;-70
2023/12/07 05:14:55;;;;;;;4.25;3.65;;;;;;;;;;5069291;28;40063;-70
2023/12/07 05:17:23;;;;;;;4.32;3.92;;;;;;;;;;5069157;28;41183;-70
2023/12/07 05:19:52;;;;;;;3.55;3.25;;;;;;;;;;5069611;28;40938;-70
2023/12/07 05:22:21;;;;;;;3.95;3.55;;;;;;;;;;5069378;28;41635;-70
2023/12/07 05:24:50;;;;;;;3.70;3.20;;;;;;;;;;5055455;28;43062;-70
2023/12/07 05:27:18;;;;;;;4.72;4.15;;;;;;;;;;5069295;28;39939;-70
2023/12/07 05:29:46;;;;;;;4.32;3.92;;;;;;;;;;5068400;28;41867;-70
2023/12/07 05:32:14;;;;;;;4.60;3.78;;;;;;;;;;5067680;28;41730;-71
2023/12/07 05:34:42;;;;;;;4.82;4.38;;;;;;;;;;5066822;28;40033;-70
2023/12/07 05:37:12;;;;;;;4.68;3.78;;;;;;;;;;5068423;28;41609;-70
2023/12/07 05:39:40;;;;;;;4.65;4.00;;;;;;;;;;5068597;28;40105;-70
2023/12/07 05:42:08;;;;;;;4.97;4.35;;;;;;;;;;5067833;28;41479;-71
2023/12/07 05:44:36;;;;;;;3.50;3.17;;;;;;;;;;5068369;28;42029;-71
2023/12/07 05:47:04;;;;;;;4.28;3.88;;;;;;;;;;5069473;28;42837;-70
2023/12/07 05:49:32;;;;;;;3.95;3.58;;;;;;;;;;5069217;28;41285;-70
2023/12/07 05:52:00;;;;;;;3.85;3.40;;;;;;;;;;5069143;28;42151;-70
2023/12/07 05:54:30;;;;;;;3.60;3.28;;;;;;;;;;5050965;28;39009;-71
2023/12/07 05:56:58;;;;;;;4.30;3.70;;;;;;;;;;5068276;28;41670;-70
2023/12/07 05:59:26;;;;;;;4.18;3.67;;;;;;;;;;5069145;28;43094;-71
2023/12/07 06:01:54;;;;;;;4.18;3.78;;;;;;;;;;5069919;28;41677;-70
2023/12/07 06:04:22;;;;;;;3.40;3.10;;;;;;;;;;5063920;28;41911;-70
2023/12/07 06:06:50;;;;;;;3.72;3.35;;;;;;;;;;5059917;28;40251;-70
2023/12/07 06:09:18;;;;;;;4.20;3.80;;;;;;;;;;5057032;28;41469;-71
2023/12/07 06:11:47;;;;;;;3.92;3.28;;;;;;;;;;5079411;28;42044;-70
2023/12/07 06:14:15;;;;;;;4.32;3.90;;;;;;;;;;5070228;28;40601;-71
2023/12/07 06:16:43;;;;;;;5.10;4.57;;;;;;;;;;5076727;28;41458;-70
2023/12/07 06:19:11;;;;;;;4.10;3.70;;;;;;;;;;5060674;28;42645;-70
2023/12/07 06:21:39;;;;;;;3.50;3.20;;;;;;;;;;5068654;28;41244;-70
2023/12/07 06:24:07;;;;;;;4.03;3.40;;;;;;;;;;5048720;28;40637;-71
2023/12/07 06:26:35;;;;;;;4.97;4.47;;;;;;;;;;5068220;28;41219;-70
2023/12/07 06:29:07;;;;;;;4.50;3.67;;;;;;;;;;5068718;28;42224;-71
2023/12/07 06:31:35;;;;;;;4.40;4.00;;;;;;;;;;5064885;28;42631;-70
2023/12/07 06:34:03;;;;;;;4.43;4.03;;;;;;;;;;5067484;28;40091;-71
2023/12/07 06:36:31;;;;;;;4.10;3.70;;;;;;;;;;5068210;28;41573;-70
2023/12/07 06:38:59;;;;;;;5.03;4.50;;;;;;;;;;5067547;28;43062;-70
2023/12/07 06:41:27;;;;;;;4.25;3.85;;;;;;;;;;5069823;28;41631;-70
2023/12/07 06:43:55;;;;;;;4.05;3.55;;;;;;;;;;5069643;28;42152;-70
2023/12/07 06:46:26;;;;;;;5.90;5.30;;;;;;;;;;5067226;28;39986;-70
2023/12/07 06:48:54;;;;;;;4.20;3.80;;;;;;;;;;5067965;28;39712;-71
2023/12/07 06:51:22;;;;;;;3.97;3.58;;;;;;;;;;5048598;28;40444;-70
2023/12/07 06:53:51;;;;;;;4.35;3.95;;;;;;;;;;5059125;28;39833;-70
2023/12/07 06:56:19;;;;;;;4.00;3.60;;;;;;;;;;5068204;28;42377;-70
2023/12/07 06:58:47;;;;;;;3.85;3.45;;;;;;;;;;5065643;28;42522;-70
2023/12/07 07:01:15;;;;;;;4.13;3.72;;;;;;;;;;5054034;28;41965;-70
2023/12/07 07:03:44;;;;;;;4.68;4.18;;;;;;;;;;5067358;28;41781;-71
2023/12/07 07:06:12;;;;;;;5.88;5.30;;;;;;;;;;5061796;28;43047;-70
2023/12/07 07:08:40;;;;;;;4.10;3.70;;;;;;;;;;5064881;28;42002;-71
2023/12/07 07:11:13;;;;;;;5.60;4.95;;;;;;;;;;5067249;28;41837;-70
2023/12/07 07:13:40;;;;;;;4.72;4.32;;;;;;;;;;5060195;28;40014;-70
2023/12/07 07:16:09;;;;;;;4.03;3.60;;;;;;;;;;5067338;28;41462;-70
2023/12/07 07:18:38;;;;;;;5.25;4.30;;;;;;;;;;5067100;28;41672;-70
2023/12/07 07:21:07;;;;;;;4.20;3.80;;;;;;;;;;5064293;28;41260;-70
2023/12/07 07:23:35;;;;;;;4.70;4.30;;;;;;;;;;5063396;28;41383;-70
2023/12/07 07:26:04;;;;;;;5.53;4.35;;;;;;;;;;5065035;28;41871;-70
2023/12/07 07:28:32;;;;;;;4.40;4.00;;;;;;;;;;5068164;28;39879;-70
2023/12/07 07:31:00;;;;;;;5.10;4.45;;;;;;;;;;5048180;28;40831;-70
2023/12/07 07:33:28;;;;;;;4.57;4.18;;;;;;;;;;5050768;28;40776;-71
2023/12/07 07:35:56;;;;;;;4.38;3.97;;;;;;;;;;5067058;28;41522;-70
2023/12/07 07:38:28;;;;;;;4.28;3.85;;;;;;;;;;5067290;28;42080;-71
2023/12/07 07:40:56;;;;;;;5.18;4.68;;;;;;;;;;5067572;28;40619;-71
2023/12/07 07:43:24;;;;;;;4.53;4.13;;;;;;;;;;5067155;28;42378;-70
2023/12/07 07:45:52;;;;;;;3.72;3.42;;;;;;;;;;5066891;28;41644;-70
2023/12/07 07:48:20;;;;;;;3.90;3.50;;;;;;;;;;5069498;28;40349;-70
2023/12/07 07:50:48;;;;;;;4.95;4.45;;;;;;;;;;5056427;28;41948;-70
2023/12/07 07:53:17;;;;;;;4.38;3.97;;;;;;;;;;5071549;28;40238;-70
2023/12/07 07:55:46;;;;;;;4.38;3.97;;;;;;;;;;5071309;28;41483;-70
2023/12/07 07:58:14;;;;;;;5.30;4.53;;;;;;;;;;5070492;28;42772;-70
2023/12/07 08:00:42;;;;;;;5.35;4.85;;;;;;;;;;5071074;28;39878;-70
2023/12/07 08:03:10;;;;;;;4.45;4.05;;;;;;;;;;5060129;28;41905;-70
2023/12/07 08:05:38;;;;;;;5.38;4.88;;;;;;;;;;5047151;28;43035;-70
2023/12/07 08:08:06;;;;;;;5.68;5.07;;;;;;;;;;5050871;28;40047;-70
2023/12/07 08:10:34;;;;;;;5.70;5.13;;;;;;;;;;5055944;28;42192;-71
2023/12/07 08:13:24;;;;;;;4.68;4.28;;;;;;;;;;5067455;28;40307;-70
2023/12/07 08:15:52;;;;;;;4.63;4.22;;;;;;;;;;5069687;28;42196;-71
2023/12/07 08:18:24;;;;;;;5.10;4.60;;;;;;;;;;5067767;28;41919;-70
2023/12/07 08:20:53;;;;;;;4.03;3.45;;;;;;;;;;5070598;28;40116;-70
2023/12/07 08:23:21;;;;;;;5.25;4.75;;;;;;;;;;5070978;28;41630;-70
2023/12/07 08:25:49;;;;;;;4.93;4.53;;;;;;;;;;5069939;28;42270;-70
2023/12/07 08:28:17;;;;;;;7.45;6.35;;;;;;;;;;5070606;28;39934;-73
2023/12/07 08:30:47;;;;;;;5.30;4.80;;;;;;;;;;5066939;28;41548;-73
2023/12/07 08:33:15;;;;;;;6.03;5.43;;;;;;;;;;5060926;28;42162;-73
2023/12/07 08:35:43;;;;;;;6.25;5.60;;;;;;;;;;5067865;28;42233;-73
2023/12/07 08:38:11;;;;;;;6.68;6.05;;;;;;;;;;5069913;28;42916;-73
2023/12/07 08:40:39;;;;;;;5.03;4.53;;;;;;;;;;5065750;28;42223;-72
2023/12/07 08:43:08;;;;;;;8.23;5.78;;;;;;;;;;5070419;28;41486;-72
2023/12/07 08:45:38;;;;;;;5.70;4.93;;;;;;;;;;5055283;28;41815;-72
2023/12/07 08:48:08;;;;;;;5.80;4.85;;;;;;;;;;5051027;28;40656;-72
2023/12/07 08:50:36;;;;;;;5.80;4.88;;;;;;;;;;5070116;28;41865;-72
2023/12/07 08:53:04;;;;;;;7.70;5.80;;;;;;;;;;5069740;28;41713;-72
2023/12/07 08:55:33;;;;;;;7.05;6.35;;;;;;;;;;5071139;28;41968;-72
2023/12/07 08:58:03;;;;;;;6.05;5.45;;;;;;;;;;5069529;28;42052;-72
2023/12/07 09:00:31;;;;;;;7.32;5.55;;;;;;;;;;5069240;28;39983;-72
2023/12/07 09:02:59;;;;;;;7.95;7.07;;;;;;;;;;5069405;28;42432;-72
2023/12/07 09:05:29;;;;;;;6.55;5.95;;;;;;;;;;5033402;28;41426;-72
2023/12/07 09:07:58;;;;;;;6.40;5.80;;;;;;;;;;5037176;28;39991;-72
2023/12/07 09:10:26;;;;;;;8.45;7.55;;;;;;;;;;5049737;28;42280;-72
2023/12/07 09:12:54;;;;;;;6.75;5.93;;;;;;;;;;5038617;28;41855;-71
2023/12/07 09:15:22;;;;;;;6.43;5.72;;;;;;;;;;5049178;28;39167;-72
2023/12/07 09:17:50;;;;;;;7.15;6.43;;;;;;;;;;5046766;28;39819;-72
2023/12/07 09:20:18;;;;;;;7.65;6.32;;;;;;;;;;5044946;28;39909;-72
2023/12/07 09:22:48;;;;;;;6.20;5.57;;;;;;;;;;5044469;28;42200;-72
2023/12/07 09:25:17;;;;;;;6.55;5.85;;;;;;;;;;5050024;28;42659;-72
2023/12/07 09:27:45;;;;;;;7.20;5.40;;;;;;;;;;5044259;28;41291;-71
2023/12/07 09:30:13;;;;;;;7.82;6.03;;;;;;;;;;5034925;28;42639;-72
2023/12/07 09:32:42;;;;;;;7.30;5.80;;;;;;;;;;5046441;28;42775;-72
2023/12/07 09:35:14;;;;;;;7.15;6.45;;;;;;;;;;5047373;28;40070;-71
2023/12/07 09:37:43;;;;;;;9.00;6.90;;;;;;;;;;5047893;28;41216;-71
2023/12/07 09:40:18;;;;;;;7.07;6.38;;;;;;;;;;5047755;28;33280;-71
2023/12/07 09:42:46;;;;;;;7.78;6.85;;;;;;;;;;5040398;28;41803;-72
2023/12/07 09:45:16;;;;;;;9.02;5.85;;;;;;;;;;5048290;28;43389;-71
2023/12/07 09:47:44;;;;;;;9.82;5.80;;;;;;;;;;5044701;28;38619;-70
2023/12/07 09:50:13;;;;;;;5.32;4.60;;;;;;;;;;5045018;28;41619;-70
2023/12/07 09:52:41;;;;;;;7.28;6.57;;;;;;;;;;5045502;28;43117;-70
2023/12/07 09:55:22;;;;;;;7.68;6.78;;;;;;;;;;5039146;28;42243;-73
2023/12/07 09:57:50;;;;;;;7.78;6.47;;;;;;;;;;5043143;28;41803;-72
2023/12/07 10:00:18;;;;;;;6.85;5.97;;;;;;;;;;5046184;28;42110;-71
2023/12/07 10:02:47;;;;;;;7.15;5.90;;;;;;;;;;5046054;28;41754;-72
2023/12/07 10:05:16;;;;;;;6.65;5.80;;;;;;;;;;5062512;28;41999;-72
2023/12/07 10:07:46;;;;;;;7.75;6.70;;;;;;;;;;5068512;28;40214;-72
2023/12/07 10:10:15;;;;;;;7.88;7.07;;;;;;;;;;5041378;28;39717;-71
2023/12/07 10:12:48;;;;;;;7.80;6.95;;;;;;;;;;5063642;28;42653;-72
2023/12/07 10:15:16;;;;;;;8.98;7.40;;;;;;;;;;5069621;28;40941;-73
2023/12/07 10:17:47;;;;;;;7.68;6.63;;;;;;;;;;5064714;28;41056;-72
2023/12/07 10:20:16;;;;;;;8.50;6.70;;;;;;;;;;5064495;28;43076;-71
2023/12/07 10:22:44;;;;;;;8.23;5.40;;;;;;;;;;5041958;28;39016;-72
2023/12/07 10:25:13;;;;;;;9.55;6.75;;;;;;;;;;5062543;28;42558;-72
2023/12/07 10:27:41;;;;;;;9.35;7.47;;;;;;;;;;5048443;28;40261;-71
2023/12/07 10:30:11;;;;;;;7.15;5.55;;;;;;;;;;5051017;28;42600;-70
2023/12/07 10:32:40;;;;;;;7.90;7.10;;;;;;;;;;5059960;28;41136;-70
2023/12/07 10:35:09;;;;;;;7.03;6.00;;;;;;;;;;5064918;28;40405;-70
2023/12/07 10:37:37;;;;;;;7.55;6.75;;;;;;;;;;5066100;28;41235;-70
2023/12/07 10:40:07;;;;;;;9.48;8.18;;;;;;;;;;5065581;28;41798;-70
2023/12/07 10:42:36;;;;;;;6.55;5.88;;;;;;;;;;5067355;28;42433;-70
2023/12/07 10:45:05;;;;;;;9.30;7.20;;;;;;;;;;5039318;28;41143;-71
2023/12/07 10:47:38;;;;;;;7.85;7.05;;;;;;;;;;5060372;28;39986;-69
2023/12/07 10:50:10;;;;;;;7.97;6.68;;;;;;;;;;5054155;28;41613;-70
2023/12/07 10:52:43;;;;;;;7.00;6.30;;;;;;;;;;5064716;28;42049;-70
2023/12/07 10:55:13;;;;;;;8.52;6.60;;;;;;;;;;5063396;28;41113;-70
2023/12/07 10:57:41;;;;;;;9.40;6.75;;;;;;;;;;5059316;28;40450;-71
2023/12/07 11:00:11;;;;;;;7.00;6.25;;;;;;;;;;5065214;28;20261;-72
2023/12/07 11:02:41;;;;;;;8.95;5.85;;;;;;;;;;5060901;28;40972;-71
2023/12/07 11:05:09;;;;;;;9.48;7.03;;;;;;;;;;5061734;28;41010;-71
2023/12/07 11:07:41;;;;;;;6.07;5.47;;;;;;;;;;5064500;28;42813;-72
2023/12/07 11:10:13;;;;;;;7.40;6.10;;;;;;;;;;5065762;28;42671;-72
2023/12/07 11:12:45;;;;;;;7.22;6.47;;;;;;;;;;5052524;28;42607;-73
2023/12/07 11:15:13;;;;;;;12.00;7.47;;;;;;;;;;5065175;28;40336;-73
2023/12/07 11:17:53;;;;;;;9.27;7.28;;;;;;;;;;5065077;28;41703;-72
2023/12/07 11:20:21;;;;;;;8.15;6.85;;;;;;;;;;5048946;28;41954;-72
2023/12/07 11:22:50;;;;;;;8.70;7.03;;;;;;;;;;5054313;28;41378;-73
2023/12/07 11:25:18;;;;;;;8.88;7.25;;;;;;;;;;5067832;28;42624;-73
2023/12/07 11:27:49;;;;;;;6.93;6.20;;;;;;;;;;5065564;28;42262;-73
2023/12/07 11:30:17;;;;;;;9.30;6.60;;;;;;;;;;5047642;28;41331;-71
2023/12/07 11:32:46;;;;;;;7.97;5.40;;;;;;;;;;5060230;28;42417;-70
2023/12/07 11:35:16;;;;;;;9.20;6.13;;;;;;;;;;5058429;28;42836;-73
2023/12/07 11:38:04;;;;;;;9.27;6.40;;;;;;;;;;5060177;28;41502;-71
2023/12/07 11:40:32;;;;;;;9.93;7.00;;;;;;;;;;5057979;28;42031;-73
2023/12/07 11:43:01;;;;;;;8.07;6.38;;;;;;;;;;5057438;28;40464;-72
2023/12/07 11:45:41;;;;;;;8.65;6.97;;;;;;;;;;5060951;28;41329;-72
2023/12/07 11:48:10;;;;;;;8.50;6.60;;;;;;;;;;5057732;28;42795;-73
2023/12/07 11:50:56;;;;;;;9.63;6.88;;;;;;;;;;5055434;28;39975;-73
2023/12/07 11:53:24;;;;;;;9.73;8.10;;;;;;;;;;5056766;28;41669;-73
2023/12/07 11:55:53;;;;;;;10.98;6.68;;;;;;;;;;5056691;28;40242;-72
2023/12/07 11:58:21;;;;;;;9.10;7.53;;;;;;;;;;5056816;28;43114;-73
2023/12/07 12:00:49;;;;;;;12.95;7.03;;;;;;;;;;5056426;28;41797;-71
2023/12/07 12:03:17;;;;;;;10.77;8.05;;;;;;;;;;5055582;28;40958;-72
2023/12/07 12:05:45;;;;;;;9.75;7.28;;;;;;;;;;5057680;28;42615;-72
2023/12/07 12:08:14;;;;;;;15.82;7.97;;;;;;;;;;5058669;28;41708;-71
2023/12/07 12:10:43;;;;;;;7.50;6.38;;;;;;;;;;5055435;28;40943;-71
2023/12/07 12:13:11;;;;;;;9.40;6.90;;;;;;;;;;5056363;28;42630;-72
2023/12/07 12:15:39;;;;;;;9.07;6.20;;;;;;;;;;5057428;28;40549;-72
2023/12/07 12:18:07;;;;;;;9.73;6.38;;;;;;;;;;5060438;28;42146;-73
2023/12/07 12:20:35;;;;;;;10.05;6.78;;;;;;;;;;5059467;28;42624;-74
2023/12/07 12:23:03;;;;;;;9.65;7.47;;;;;;;;;;5062636;28;40108;-74
2023/12/07 12:25:33;;;;;;;10.07;7.43;;;;;;;;;;5061941;28;40008;-73
2023/12/07 12:28:02;;;;;;;11.65;7.75;;;;;;;;;;5043339;28;41164;-72
2023/12/07 12:30:31;;;;;;;9.80;7.80;;;;;;;;;;5063724;28;41144;-72
2023/12/07 12:33:00;;;;;;;10.45;8.40;;;;;;;;;;5063743;28;42628;-73
2023/12/07 12:35:28;;;;;;;9.75;7.25;;;;;;;;;;5067249;28;42196;-72
2023/12/07 12:37:56;;;;;;;9.52;7.70;;;;;;;;;;5068347;28;41244;-73
2023/12/07 12:40:24;;;;;;;8.65;6.78;;;;;;;;;;5066317;28;42187;-73
2023/12/07 12:42:54;;;;;;;10.15;7.82;;;;;;;;;;5067806;28;39993;-74
2023/12/07 12:45:24;;;;;;;10.65;8.20;;;;;;;;;;5063206;28;41497;-75
2023/12/07 12:47:52;;;;;;;10.77;8.43;;;;;;;;;;5067203;28;41585;-75
2023/12/07 12:50:33;;;;;;;11.05;8.65;;;;;;;;;;5066145;28;41284;-74
2023/12/07 12:53:01;;;;;;;10.65;8.18;;;;;;;;;;5064109;28;42013;-74
2023/12/07 12:55:29;;;;;;;12.15;8.75;;;;;;;;;;5066995;28;42079;-74
2023/12/07 12:57:58;;;;;;;8.32;7.32;;;;;;;;;;5049025;28;39121;-74
2023/12/07 13:00:26;;;;;;;9.70;7.57;;;;;;;;;;5069576;28;41980;-74
2023/12/07 13:02:54;;;;;;;9.95;8.18;;;;;;;;;;5066935;28;40400;-74
2023/12/07 13:05:23;;;;;;;10.75;8.68;;;;;;;;;;5065620;28;41665;-74
2023/12/07 13:07:51;;;;;;;10.50;8.95;;;;;;;;;;5046445;28;40771;-74
2023/12/07 13:10:39;;;;;;;12.35;10.07;;;;;;;;;;5063169;28;40536;-74
2023/12/07 13:13:08;;;;;;;11.55;8.95;;;;;;;;;;5065223;28;41372;-75
2023/12/07 13:15:37;;;;;;;12.65;9.75;;;;;;;;;;5065184;28;43841;-74
2023/12/07 13:18:05;;;;;;;15.68;11.90;;;;;;;;;;5069991;28;40077;-74
2023/12/07 13:20:35;;;;;;;11.80;9.38;;;;;;;;;;5065746;28;40655;-74
2023/12/07 13:23:20;;;;;;;12.18;10.02;;;;;;;;;;5063826;28;39882;-74
2023/12/07 13:25:49;;;;;;;14.80;11.52;;;;;;;;;;5047663;28;39686;-74
2023/12/07 13:28:18;;;;;;;11.73;9.68;;;;;;;;;;5067823;28;42817;-74
2023/12/07 13:30:46;;;;;;;14.45;10.15;;;;;;;;;;5065496;28;40089;-74
2023/12/07 13:33:14;;;;;;;14.65;11.40;;;;;;;;;;5070405;28;43128;-74
2023/12/07 13:35:54;;;;;;;13.65;10.45;;;;;;;;;;5059088;28;41837;-74
2023/12/07 13:38:23;;;;;;;9.93;8.85;;;;;;;;;;5065600;28;40081;-74
2023/12/07 13:40:52;;;;;;;14.05;10.70;;;;;;;;;;5065000;28;41159;-74
2023/12/07 13:43:23;;;;;;;13.63;10.68;;;;;;;;;;5065129;28;43350;-74
2023/12/07 13:45:52;;;;;;;12.23;9.70;;;;;;;;;;5061076;28;41761;-74
2023/12/07 13:48:20;;;;;;;13.52;10.18;;;;;;;;;;5065956;28;42118;-73
2023/12/07 13:50:48;;;;;;;12.90;10.07;;;;;;;;;;5065051;28;40136;-74
2023/12/07 13:53:19;;;;;;;14.85;10.80;;;;;;;;;;5063741;28;41450;-74
2023/12/07 13:55:47;;;;;;;14.55;11.38;;;;;;;;;;5066003;28;43752;-74
2023/12/07 13:58:15;;;;;;;15.00;11.15;;;;;;;;;;5063454;28;42175;-74
2023/12/07 14:00:46;;;;;;;15.35;11.52;;;;;;;;;;5070425;28;43049;-74
2023/12/07 14:03:14;;;;;;;16.60;11.02;;;;;;;;;;5064540;28;42741;-73
2023/12/07 14:05:42;;;;;;;15.02;11.05;;;;;;;;;;5044589;28;39977;-74
2023/12/07 14:08:10;;;;;;;17.58;10.38;;;;;;;;;;5062330;28;43122;-73
2023/12/07 14:10:38;;;;;;;9.93;8.02;;;;;;;;;;5066582;28;39346;-72
2023/12/07 14:13:06;;;;;;;13.88;10.30;;;;;;;;;;5066942;28;42490;-75
2023/12/07 14:15:36;;;;;;;15.43;11.30;;;;;;;;;;5063006;28;42293;-75
2023/12/07 14:18:14;;;;;;;14.82;10.55;;;;;;;;;;5048426;28;40416;-73
2023/12/07 14:20:43;;;;;;;14.70;10.60;;;;;;;;;;5061582;28;41233;-73
2023/12/07 14:23:31;;;;;;;13.95;10.68;;;;;;;;;;5064157;28;42846;-73
2023/12/07 14:25:59;;;;;;;18.73;13.90;;;;;;;;;;5067646;28;41009;-73
2023/12/07 14:28:33;;;;;;;14.02;10.80;;;;;;;;;;5064512;28;42131;-72
2023/12/07 14:31:01;;;;;;;18.30;12.23;;;;;;;;;;5057631;28;41049;-73
2023/12/07 14:33:31;;;;;;;18.45;13.02;;;;;;;;;;5049191;28;40410;-72
2023/12/07 14:35:59;;;;;;;15.35;12.10;;;;;;;;;;5062562;28;42005;-73
2023/12/07 14:38:27;;;;;;;18.60;12.70;;;;;;;;;;5067653;28;40228;-72
2023/12/07 14:40:55;;;;;;;17.25;11.70;;;;;;;;;;5066776;28;41781;-73
2023/12/07 14:43:23;;;;;;;16.33;12.55;;;;;;;;;;5067368;28;41749;-73
2023/12/07 14:45:52;;;;;;;18.60;12.82;;;;;;;;;;5067023;28;40586;-73
2023/12/07 14:48:20;;;;;;;15.70;12.30;;;;;;;;;;5067576;28;40996;-73
2023/12/07 14:50:50;;;;;;;17.27;12.35;;;;;;;;;;5067708;28;41222;-73